Time;durP1;ratioP1;P1;durP2;ratioP2;P2;SDS_P1;SDS_P2;PMS_P1;PMS_P2;Temp;Humidity;BMP_temperature;BMP_pressure;BME280_temperature;BME280_humidity;BME280_pressure;Samples;Min_cycle;Max_cycle;Signal;HPM_P1;HPM_P2
2024/02/16 05:07:01;;;;;;;0.30;0.20;;;10.20;99.90;;;;;;5230171;23;20244;-67
2024/02/16 05:09:26;;;;;;;0.47;0.47;;;10.20;99.90;;;;;;4957579;29;20563;-70
2024/02/16 05:11:52;;;;;;;0.30;0.30;;;10.20;99.90;;;;;;4957830;29;20185;-67
2024/02/16 05:14:17;;;;;;;0.40;0.40;;;10.10;99.90;;;;;;4957239;29;20182;-68
2024/02/16 05:16:47;;;;;;;0.30;0.30;;;10.20;99.90;;;;;;4957612;28;20703;-68
2024/02/16 05:19:13;;;;;;;0.30;0.30;;;10.20;99.90;;;;;;4957600;29;20174;-69
2024/02/16 05:21:38;;;;;;;0.30;0.30;;;10.30;99.90;;;;;;4957642;29;20565;-68
2024/02/16 05:24:04;;;;;;;0.30;0.30;;;10.30;99.90;;;;;;4957585;29;20398;-70
2024/02/16 05:26:30;;;;;;;0.30;0.30;;;10.30;99.90;;;;;;4956918;28;20202;-69
2024/02/16 05:28:55;;;;;;;0.30;0.30;;;10.30;99.90;;;;;;4957684;29;20639;-69
2024/02/16 05:31:21;;;;;;;0.30;0.30;;;10.30;99.90;;;;;;4957422;29;20260;-69
2024/02/16 05:33:51;;;;;;;0.40;0.40;;;10.30;99.90;;;;;;4957344;29;20257;-68
2024/02/16 05:36:29;;;;;;;0.30;0.30;;;10.30;99.90;;;;;;4955137;28;20192;-69
2024/02/16 05:38:56;;;;;;;0.30;0.30;;;10.30;99.90;;;;;;4957431;29;20411;-68
2024/02/16 05:41:22;;;;;;;0.37;0.37;;;10.30;99.90;;;;;;4957128;29;20469;-69
2024/02/16 05:43:48;;;;;;;0.47;0.47;;;10.30;99.90;;;;;;4957379;29;20402;-69
2024/02/16 05:46:16;;;;;;;0.30;0.20;;;10.30;99.90;;;;;;4956698;29;20422;-68
2024/02/16 05:48:43;;;;;;;0.30;0.20;;;10.40;99.90;;;;;;4957200;29;20400;-68
2024/02/16 05:51:09;;;;;;;0.30;0.30;;;10.40;99.90;;;;;;4957122;29;20194;-68
2024/02/16 05:53:35;;;;;;;0.30;0.30;;;10.40;99.90;;;;;;4957187;29;20425;-68
2024/02/16 05:56:01;;;;;;;0.30;0.20;;;10.40;99.90;;;;;;4939410;29;20436;-70
2024/02/16 05:58:27;;;;;;;0.30;0.30;;;10.40;99.90;;;;;;4939719;29;20646;-68
2024/02/16 06:00:54;;;;;;;0.40;0.40;;;10.40;99.90;;;;;;4956993;29;20226;-68
2024/02/16 06:03:20;;;;;;;0.30;0.30;;;10.40;99.90;;;;;;4939855;29;20435;-69
2024/02/16 06:05:46;;;;;;;0.30;0.30;;;10.40;99.90;;;;;;4956455;28;20194;-68
2024/02/16 06:08:12;;;;;;;0.30;0.30;;;10.30;99.90;;;;;;4956653;29;20423;-68
2024/02/16 06:10:39;;;;;;;0.40;0.40;;;10.30;99.90;;;;;;4956861;29;20175;-68
2024/02/16 06:13:06;;;;;;;0.30;0.20;;;10.40;99.90;;;;;;4956620;28;20200;-69
2024/02/16 06:15:33;;;;;;;0.30;0.30;;;10.40;99.90;;;;;;4956130;28;20691;-69
2024/02/16 06:18:00;;;;;;;0.30;0.30;;;10.40;99.90;;;;;;4939365;29;20429;-68
2024/02/16 06:20:26;;;;;;;0.30;0.30;;;10.40;99.90;;;;;;4956598;28;20410;-69
2024/02/16 06:22:52;;;;;;;0.40;0.40;;;10.40;99.90;;;;;;4956395;29;20786;-69
2024/02/16 06:25:18;;;;;;;0.30;0.30;;;10.40;99.90;;;;;;4956317;28;20181;-68
2024/02/16 06:27:44;;;;;;;0.30;0.30;;;10.50;99.90;;;;;;4956480;29;20174;-69
2024/02/16 06:30:12;;;;;;;0.30;0.20;;;10.50;99.90;;;;;;4939102;29;20194;-68
2024/02/16 06:32:40;;;;;;;0.30;0.30;;;10.50;99.90;;;;;;4956413;29;20507;-68
2024/02/16 06:35:07;;;;;;;0.30;0.20;;;10.50;99.90;;;;;;4955742;28;20430;-70
2024/02/16 06:37:33;;;;;;;0.30;0.30;;;10.50;99.90;;;;;;4955622;29;20417;-68
2024/02/16 06:39:58;;;;;;;0.30;0.30;;;10.50;99.90;;;;;;4956106;29;20456;-70
2024/02/16 06:42:25;;;;;;;0.30;0.30;;;10.50;99.90;;;;;;4955449;28;20516;-70
2024/02/16 06:44:51;;;;;;;0.30;0.30;;;10.50;99.90;;;;;;4955532;29;20486;-68
2024/02/16 06:47:16;;;;;;;0.53;0.53;;;10.60;99.90;;;;;;4954742;28;20195;-69
2024/02/16 06:49:42;;;;;;;0.30;0.30;;;10.50;99.90;;;;;;4955219;28;20531;-68
2024/02/16 06:52:09;;;;;;;0.30;0.30;;;10.50;99.90;;;;;;4954607;29;20525;-71
2024/02/16 06:54:35;;;;;;;0.40;0.40;;;10.50;99.90;;;;;;4955444;28;20190;-70
2024/02/16 06:57:01;;;;;;;0.30;0.30;;;10.50;99.90;;;;;;4955639;28;20443;-68
2024/02/16 06:59:27;;;;;;;0.30;0.30;;;10.50;99.90;;;;;;4955640;28;20551;-68
2024/02/16 07:01:53;;;;;;;0.30;0.30;;;10.50;99.90;;;;;;4955626;28;20553;-72
2024/02/16 07:04:20;;;;;;;0.50;0.50;;;10.60;99.90;;;;;;4955112;29;20202;-76
2024/02/16 07:06:45;;;;;;;0.30;0.30;;;10.50;99.90;;;;;;4955553;28;20433;-71
2024/02/16 07:09:15;;;;;;;0.30;0.30;;;10.50;99.90;;;;;;4955618;29;20629;-70
2024/02/16 07:11:40;;;;;;;0.30;0.30;;;10.40;99.90;;;;;;4938219;29;20200;-71
2024/02/16 07:14:08;;;;;;;0.30;0.30;;;10.40;99.90;;;;;;4955381;29;20901;-72
2024/02/16 07:16:33;;;;;;;0.30;0.30;;;10.40;99.90;;;;;;4954990;28;20765;-73
2024/02/16 07:18:59;;;;;;;0.30;0.20;;;10.30;99.90;;;;;;4955401;28;20424;-69
2024/02/16 07:21:25;;;;;;;0.30;0.30;;;10.40;99.90;;;;;;4954968;29;20209;-71
2024/02/16 07:23:52;;;;;;;0.30;0.30;;;10.40;99.90;;;;;;4955416;29;20305;-69
2024/02/16 07:26:18;;;;;;;0.30;0.30;;;10.40;99.90;;;;;;4936781;29;20477;-71
2024/02/16 07:28:43;;;;;;;1.10;0.77;;;10.40;99.90;;;;;;4937563;29;20892;-71
2024/02/16 07:31:10;;;;;;;0.30;0.20;;;10.50;99.90;;;;;;4953551;29;20441;-69
2024/02/16 07:33:36;;;;;;;0.30;0.30;;;10.60;99.90;;;;;;4953729;29;20181;-67
2024/02/16 07:36:02;;;;;;;0.30;0.30;;;10.80;99.90;;;;;;4953371;29;20446;-65
2024/02/16 07:38:28;;;;;;;0.30;0.30;;;10.90;99.90;;;;;;4954057;29;20179;-69
2024/02/16 07:40:54;;;;;;;0.60;0.50;;;10.90;99.90;;;;;;4953454;29;20788;-69
2024/02/16 07:43:21;;;;;;;0.30;0.30;;;11.00;99.90;;;;;;4953893;28;20183;-68
2024/02/16 07:45:47;;;;;;;0.30;0.30;;;11.10;99.90;;;;;;4936407;29;20975;-68
2024/02/16 07:48:12;;;;;;;0.47;0.47;;;11.10;99.90;;;;;;4954837;29;20420;-67
2024/02/16 07:50:38;;;;;;;0.50;0.50;;;11.10;99.90;;;;;;4952868;29;20186;-66
2024/02/16 07:53:04;;;;;;;0.33;0.33;;;11.20;99.90;;;;;;4934183;29;20259;-67
2024/02/16 07:55:29;;;;;;;0.30;0.30;;;11.30;99.90;;;;;;4933531;29;20243;-69
2024/02/16 07:57:55;;;;;;;0.30;0.30;;;11.30;99.90;;;;;;4933774;29;20178;-69
2024/02/16 08:00:21;;;;;;;0.30;0.30;;;11.30;99.90;;;;;;4935624;29;20186;-69
2024/02/16 08:02:46;;;;;;;0.30;0.30;;;11.40;99.90;;;;;;4938668;29;20208;-69
2024/02/16 08:05:12;;;;;;;0.30;0.30;;;11.40;99.90;;;;;;4956417;29;20230;-68
2024/02/16 08:07:44;;;;;;;0.30;0.20;;;11.40;99.90;;;;;;4956690;29;20581;-69
2024/02/16 08:10:10;;;;;;;0.30;0.30;;;11.50;99.90;;;;;;4957782;29;20426;-68
2024/02/16 08:12:36;;;;;;;0.30;0.30;;;11.50;99.90;;;;;;4958650;29;20422;-67
2024/02/16 08:15:06;;;;;;;0.30;0.30;;;11.60;99.90;;;;;;4958309;29;20423;-67
2024/02/16 08:17:34;;;;;;;0.37;0.37;;;11.60;99.90;;;;;;4941296;29;20424;-67
2024/02/16 08:19:59;;;;;;;1.23;0.97;;;11.70;99.90;;;;;;4958422;29;20453;-66
2024/02/16 08:22:25;;;;;;;0.30;0.30;;;11.80;99.90;;;;;;4941094;29;20502;-66
2024/02/16 08:24:52;;;;;;;0.30;0.30;;;11.80;99.90;;;;;;4958171;29;20661;-66
2024/02/16 08:27:17;;;;;;;0.40;0.40;;;11.90;99.90;;;;;;4958572;29;20210;-67
2024/02/16 08:29:44;;;;;;;0.30;0.20;;;12.00;99.90;;;;;;4958290;29;20419;-67
2024/02/16 08:32:11;;;;;;;0.30;0.30;;;12.20;99.90;;;;;;4958402;29;20421;-67
2024/02/16 08:34:37;;;;;;;0.30;0.30;;;12.40;99.90;;;;;;4958184;29;20479;-68
2024/02/16 08:37:04;;;;;;;0.30;0.30;;;13.10;99.90;;;;;;4958104;29;20440;-68
2024/02/16 08:39:30;;;;;;;0.30;0.20;;;14.00;99.90;;;;;;4958381;29;20412;-68
2024/02/16 08:41:56;;;;;;;0.30;0.20;;;15.10;99.90;;;;;;4958341;29;20502;-68
2024/02/16 08:44:22;;;;;;;0.30;0.30;;;16.30;99.90;;;;;;4957812;29;20412;-69
2024/02/16 08:46:49;;;;;;;0.30;0.20;;;17.50;99.90;;;;;;4958034;28;20856;-69
2024/02/16 08:49:16;;;;;;;0.30;0.30;;;18.30;99.90;;;;;;4952657;29;20421;-62
2024/02/16 08:51:42;;;;;;;0.30;0.30;;;19.20;99.80;;;;;;4938739;29;20450;-69
2024/02/16 08:54:07;;;;;;;0.40;0.37;;;19.90;97.40;;;;;;4954058;29;20508;-69
2024/02/16 08:56:35;;;;;;;0.30;0.30;;;20.50;96.60;;;;;;4957543;29;20433;-70
2024/02/16 08:59:01;;;;;;;0.30;0.30;;;21.10;94.70;;;;;;4940579;29;20733;-70
2024/02/16 09:01:31;;;;;;;0.40;0.40;;;21.70;93.30;;;;;;4940572;29;20538;-69
2024/02/16 09:03:57;;;;;;;0.50;0.50;;;22.10;93.60;;;;;;4957884;29;20569;-70
2024/02/16 09:06:22;;;;;;;0.40;0.40;;;22.90;91.60;;;;;;4957396;29;20866;-67
2024/02/16 09:08:48;;;;;;;0.30;0.30;;;23.60;90.80;;;;;;4957329;29;20203;-69
2024/02/16 09:11:14;;;;;;;0.30;0.30;;;24.00;89.30;;;;;;4957061;28;20535;-69
2024/02/16 09:13:40;;;;;;;0.40;0.40;;;24.50;87.50;;;;;;4957632;29;20204;-69
2024/02/16 09:16:07;;;;;;;0.50;0.50;;;25.00;85.10;;;;;;4939970;29;20407;-69
2024/02/16 09:18:33;;;;;;;0.30;0.30;;;25.50;82.60;;;;;;4957784;29;20544;-70
2024/02/16 09:21:00;;;;;;;0.50;0.40;;;25.90;82.50;;;;;;4957700;29;20440;-68
2024/02/16 09:23:26;;;;;;;0.30;0.30;;;26.40;81.50;;;;;;4957244;29;20396;-70
2024/02/16 09:25:52;;;;;;;0.57;0.50;;;26.90;78.50;;;;;;4957256;29;20483;-69
2024/02/16 09:28:18;;;;;;;0.40;0.40;;;27.20;78.20;;;;;;4957559;29;20416;-70
2024/02/16 09:30:44;;;;;;;0.40;0.40;;;27.60;76.10;;;;;;4957579;29;20232;-68
2024/02/16 09:33:10;;;;;;;0.40;0.40;;;27.80;74.50;;;;;;4958398;29;20413;-69
2024/02/16 09:35:36;;;;;;;0.50;0.50;;;28.10;73.00;;;;;;4959785;29;20483;-69
2024/02/16 09:38:02;;;;;;;0.30;0.20;;;28.30;72.60;;;;;;4958639;29;20173;-69
2024/02/16 09:40:28;;;;;;;0.40;0.40;;;28.40;71.30;;;;;;4941606;29;20425;-69
2024/02/16 09:42:54;;;;;;;0.30;0.30;;;28.00;69.40;;;;;;4941808;29;20573;-69
2024/02/16 09:45:19;;;;;;;0.90;0.40;;;27.10;70.70;;;;;;4942147;29;20533;-69
2024/02/16 09:47:49;;;;;;;0.30;0.27;;;26.00;73.70;;;;;;4926110;29;20632;-69
2024/02/16 09:50:15;;;;;;;0.30;0.30;;;24.90;76.20;;;;;;4941899;29;20173;-69
2024/02/16 09:52:41;;;;;;;0.30;0.30;;;24.30;77.60;;;;;;4950809;29;20452;-69
2024/02/16 09:55:12;;;;;;;0.40;0.30;;;24.20;77.60;;;;;;4958216;29;20431;-69
2024/02/16 09:57:38;;;;;;;0.30;0.20;;;24.00;78.70;;;;;;4957154;29;20499;-69
2024/02/16 10:00:04;;;;;;;0.50;0.50;;;24.20;78.70;;;;;;4940810;29;20452;-69
2024/02/16 10:02:46;;;;;;;1.07;0.57;;;24.60;78.60;;;;;;4959196;29;20213;-68
2024/02/16 10:05:13;;;;;;;0.30;0.20;;;25.00;77.20;;;;;;4958614;29;20471;-68
2024/02/16 10:07:39;;;;;;;0.30;0.30;;;25.20;77.00;;;;;;4944452;29;20407;-64
2024/02/16 10:10:06;;;;;;;0.40;0.30;;;25.50;75.80;;;;;;4956758;28;20435;-65
2024/02/16 10:12:32;;;;;;;0.50;0.40;;;25.70;75.30;;;;;;4964299;28;20391;-69
2024/02/16 10:15:00;;;;;;;0.30;0.30;;;26.10;75.60;;;;;;4956449;29;20779;-69
2024/02/16 10:17:26;;;;;;;0.60;0.60;;;26.40;75.20;;;;;;4956639;29;20425;-69
2024/02/16 10:19:59;;;;;;;0.40;0.40;;;26.50;73.90;;;;;;4939169;29;20428;-74
2024/02/16 10:22:25;;;;;;;0.40;0.30;;;26.30;73.80;;;;;;4948961;28;20262;-72
2024/02/16 10:24:51;;;;;;;0.30;0.30;;;26.20;74.50;;;;;;4958370;28;20429;-74
2024/02/16 10:27:17;;;;;;;0.30;0.20;;;26.00;76.10;;;;;;4939008;29;20934;-73
2024/02/16 10:29:50;;;;;;;0.50;0.50;;;25.90;75.60;;;;;;4955973;29;20471;-70
2024/02/16 10:32:16;;;;;;;0.30;0.27;;;25.70;75.60;;;;;;4959260;28;20391;-72
2024/02/16 10:34:45;;;;;;;0.40;0.40;;;25.00;77.70;;;;;;4974948;28;20416;-73
2024/02/16 10:37:12;;;;;;;0.40;0.40;;;24.20;77.70;;;;;;4941055;28;20488;-73
2024/02/16 10:39:39;;;;;;;1.70;1.37;;;23.50;80.10;;;;;;4936887;29;20396;-75
2024/02/16 10:42:06;;;;;;;0.30;0.20;;;23.20;81.20;;;;;;4937020;29;20453;-73
2024/02/16 10:44:36;;;;;;;0.40;0.40;;;22.90;82.30;;;;;;4919472;29;20773;-74
2024/02/16 10:47:02;;;;;;;0.40;0.30;;;22.90;82.70;;;;;;4919537;29;20448;-73
2024/02/16 10:49:28;;;;;;;0.30;0.30;;;23.30;82.40;;;;;;4941147;29;20416;-77
2024/02/16 10:51:57;;;;;;;0.40;0.30;;;23.80;80.60;;;;;;4966118;28;20399;-70
2024/02/16 10:54:28;;;;;;;0.40;0.40;;;24.10;79.40;;;;;;4967114;28;20181;-70
2024/02/16 10:56:54;;;;;;;0.30;0.20;;;24.20;79.90;;;;;;4956457;28;20428;-73
2024/02/16 10:59:23;;;;;;;0.30;0.30;;;24.40;79.50;;;;;;4952509;28;20428;-72
2024/02/16 11:02:02;;;;;;;0.40;0.40;;;24.50;78.30;;;;;;4958405;28;20451;-70
2024/02/16 11:04:38;;;;;;;0.30;0.30;;;24.40;78.20;;;;;;4957366;28;20909;-72
2024/02/16 11:07:15;;;;;;;0.30;0.30;;;24.00;78.70;;;;;;4955650;28;20447;-72
2024/02/16 11:09:43;;;;;;;0.30;0.30;;;23.50;79.50;;;;;;4956108;28;20547;-74
2024/02/16 11:12:13;;;;;;;0.30;0.20;;;23.20;79.30;;;;;;4955633;28;20454;-72
2024/02/16 11:14:40;;;;;;;0.30;0.20;;;23.20;79.00;;;;;;4955407;28;20392;-73
2024/02/16 11:17:10;;;;;;;0.30;0.27;;;22.80;80.60;;;;;;4954106;28;20447;-69
2024/02/16 11:19:39;;;;;;;0.30;0.20;;;22.40;80.30;;;;;;4946042;28;20455;-71
2024/02/16 11:22:08;;;;;;;0.50;0.50;;;22.00;80.70;;;;;;4936446;29;20460;-72
2024/02/16 11:24:36;;;;;;;0.30;0.30;;;21.40;81.20;;;;;;4935988;29;20507;-72
2024/02/16 11:27:07;;;;;;;0.30;0.30;;;21.00;83.10;;;;;;4918790;29;20472;-75
2024/02/16 11:29:34;;;;;;;0.40;0.40;;;20.80;84.70;;;;;;4936418;29;20384;-71
2024/02/16 11:32:02;;;;;;;0.30;0.30;;;20.60;86.20;;;;;;4936151;29;20391;-72
2024/02/16 11:34:29;;;;;;;0.30;0.30;;;20.50;85.70;;;;;;4935330;29;20439;-71
2024/02/16 11:36:56;;;;;;;0.30;0.30;;;20.40;86.40;;;;;;4944206;29;20418;-73
2024/02/16 11:39:22;;;;;;;0.30;0.20;;;20.20;85.80;;;;;;4957373;28;20463;-74
2024/02/16 11:41:58;;;;;;;0.30;0.27;;;20.10;87.20;;;;;;4957109;28;20479;-75
2024/02/16 11:44:23;;;;;;;0.30;0.30;;;20.00;87.70;;;;;;4955388;29;20461;-72
2024/02/16 11:46:53;;;;;;;0.47;0.47;;;19.90;87.60;;;;;;4955034;28;20440;-77
2024/02/16 11:49:19;;;;;;;0.30;0.30;;;20.00;87.50;;;;;;4955436;28;20592;-76
2024/02/16 11:51:45;;;;;;;0.40;0.40;;;20.00;87.40;;;;;;4940153;29;20398;-75
2024/02/16 11:54:12;;;;;;;0.30;0.20;;;20.00;89.00;;;;;;4939982;29;20191;-72
2024/02/16 11:56:39;;;;;;;0.37;0.37;;;20.00;88.70;;;;;;4954826;28;20236;-71
2024/02/16 11:59:06;;;;;;;0.30;0.30;;;20.00;88.40;;;;;;4953168;29;20473;-70
2024/02/16 12:01:34;;;;;;;0.33;0.33;;;20.10;89.70;;;;;;4955017;29;20481;-74
2024/02/16 12:04:00;;;;;;;0.30;0.30;;;20.10;88.30;;;;;;4955123;29;20413;-71
2024/02/16 12:06:26;;;;;;;0.40;0.40;;;20.10;88.80;;;;;;4953118;29;20445;-73
2024/02/16 12:08:57;;;;;;;0.30;0.30;;;20.00;88.70;;;;;;4954959;29;20192;-70
2024/02/16 12:11:23;;;;;;;0.30;0.30;;;20.00;88.20;;;;;;4955254;29;20173;-70
2024/02/16 12:13:49;;;;;;;0.30;0.30;;;19.90;89.10;;;;;;4955406;29;20415;-70
2024/02/16 12:16:18;;;;;;;0.30;0.30;;;19.90;89.30;;;;;;4955213;29;20784;-75
2024/02/16 12:18:45;;;;;;;0.30;0.30;;;20.00;90.30;;;;;;4955401;29;20169;-72
2024/02/16 12:21:11;;;;;;;0.30;0.20;;;19.90;89.50;;;;;;4940026;29;20475;-73
2024/02/16 12:23:36;;;;;;;0.30;0.30;;;19.80;89.00;;;;;;4936080;29;20420;-73
2024/02/16 12:26:04;;;;;;;0.30;0.30;;;19.80;89.20;;;;;;4935306;29;20241;-73
2024/02/16 12:28:33;;;;;;;0.30;0.30;;;19.80;89.50;;;;;;4918618;29;20208;-72
2024/02/16 12:30:59;;;;;;;0.30;0.30;;;19.70;90.00;;;;;;4935438;29;20476;-73
2024/02/16 12:33:25;;;;;;;0.30;0.20;;;19.80;89.70;;;;;;4919433;29;20389;-72
2024/02/16 12:35:51;;;;;;;0.30;0.20;;;20.00;90.10;;;;;;4950008;28;20519;-71
2024/02/16 12:38:19;;;;;;;0.30;0.30;;;20.00;90.30;;;;;;4970440;28;20931;-76
2024/02/16 12:40:48;;;;;;;0.30;0.20;;;20.00;90.20;;;;;;4969225;28;20261;-72
2024/02/16 12:43:15;;;;;;;0.30;0.30;;;20.00;90.30;;;;;;4969781;28;20459;-74
2024/02/16 12:45:41;;;;;;;0.30;0.30;;;20.00;90.40;;;;;;4954371;28;20401;-75
2024/02/16 12:48:07;;;;;;;0.30;0.20;;;20.00;90.40;;;;;;4956174;29;20424;-72
2024/02/16 12:50:33;;;;;;;0.77;0.77;;;20.00;90.80;;;;;;4932318;29;20411;-74
2024/02/16 12:52:59;;;;;;;0.30;0.30;;;19.90;90.90;;;;;;4939062;29;20401;-75
2024/02/16 12:55:25;;;;;;;0.30;0.30;;;19.80;91.10;;;;;;4904726;29;20521;-74
2024/02/16 12:57:51;;;;;;;0.30;0.30;;;19.80;91.40;;;;;;4938157;29;20539;-71
2024/02/16 13:00:17;;;;;;;0.30;0.30;;;19.70;91.50;;;;;;4938059;29;20410;-74
2024/02/16 13:02:43;;;;;;;0.70;0.60;;;19.70;91.60;;;;;;4937585;29;20203;-75
2024/02/16 13:05:10;;;;;;;0.30;0.30;;;19.60;91.60;;;;;;4950410;28;20741;-73
2024/02/16 13:07:39;;;;;;;0.30;0.27;;;19.50;91.80;;;;;;4957657;28;20475;-75
2024/02/16 13:10:07;;;;;;;0.30;0.30;;;19.40;92.30;;;;;;4957917;29;20408;-73
2024/02/16 13:12:32;;;;;;;0.40;0.30;;;19.30;92.60;;;;;;4957779;29;20421;-74
2024/02/16 13:14:58;;;;;;;0.30;0.30;;;19.30;92.60;;;;;;4944131;29;20484;-74
2024/02/16 13:17:24;;;;;;;0.30;0.30;;;19.30;92.80;;;;;;4938338;29;20199;-75
2024/02/16 13:19:49;;;;;;;0.40;0.40;;;19.30;93.00;;;;;;4938303;29;20600;-74
2024/02/16 13:22:15;;;;;;;0.40;0.40;;;19.30;93.40;;;;;;4938318;29;20214;-72
2024/02/16 13:24:41;;;;;;;0.30;0.30;;;19.10;93.50;;;;;;4938027;29;20201;-72
2024/02/16 13:27:08;;;;;;;0.30;0.30;;;19.10;93.20;;;;;;4938089;29;20305;-72
2024/02/16 13:29:34;;;;;;;0.83;0.40;;;19.00;93.40;;;;;;4949691;29;20452;-72
2024/02/16 13:32:00;;;;;;;0.30;0.20;;;19.00;93.60;;;;;;4955795;29;20512;-72
2024/02/16 13:34:27;;;;;;;0.30;0.30;;;18.90;93.60;;;;;;4956910;29;20529;-72
2024/02/16 13:36:53;;;;;;;0.30;0.30;;;18.90;93.60;;;;;;4957261;28;20185;-72
2024/02/16 13:39:19;;;;;;;0.40;0.37;;;19.00;93.90;;;;;;4957390;28;20753;-72
2024/02/16 13:41:47;;;;;;;0.30;0.30;;;18.90;93.70;;;;;;4957237;28;20444;-73
2024/02/16 13:44:14;;;;;;;0.30;0.20;;;18.80;94.00;;;;;;4939659;28;20443;-73
2024/02/16 13:46:39;;;;;;;0.37;0.37;;;18.70;94.20;;;;;;4918502;29;20525;-71
2024/02/16 13:49:06;;;;;;;0.30;0.20;;;18.60;94.60;;;;;;4935921;29;20561;-75
2024/02/16 13:51:32;;;;;;;0.30;0.30;;;18.60;94.80;;;;;;4918757;29;20718;-72
2024/02/16 13:53:57;;;;;;;0.30;0.27;;;18.60;95.00;;;;;;4918842;29;20493;-74
2024/02/16 13:56:23;;;;;;;0.30;0.20;;;18.60;95.20;;;;;;4935431;29;20260;-73
2024/02/16 13:58:49;;;;;;;0.50;0.50;;;18.60;95.30;;;;;;4920687;29;20193;-74
2024/02/16 14:01:15;;;;;;;0.33;0.33;;;18.60;95.30;;;;;;4956859;29;20704;-72
2024/02/16 14:03:41;;;;;;;0.30;0.30;;;18.60;95.30;;;;;;4956876;29;20173;-72
2024/02/16 14:06:09;;;;;;;0.30;0.30;;;18.60;95.40;;;;;;4955979;29;20811;-72
2024/02/16 14:08:36;;;;;;;0.30;0.30;;;18.50;95.90;;;;;;4956654;29;20647;-72
2024/02/16 14:11:01;;;;;;;0.87;0.87;;;18.50;96.00;;;;;;4939582;29;20416;-71
2024/02/16 14:13:27;;;;;;;0.30;0.30;;;18.50;96.30;;;;;;4956651;29;20444;-72
2024/02/16 14:15:56;;;;;;;0.50;0.50;;;18.40;96.00;;;;;;4937564;29;20496;-72
2024/02/16 14:18:21;;;;;;;0.30;0.30;;;18.40;96.20;;;;;;4937656;29;20380;-71
2024/02/16 14:20:47;;;;;;;0.30;0.30;;;18.40;96.50;;;;;;4937327;29;20445;-73
2024/02/16 14:23:13;;;;;;;0.63;0.47;;;18.30;96.40;;;;;;4937367;29;20625;-73
2024/02/16 14:25:40;;;;;;;0.50;0.40;;;18.40;96.80;;;;;;4936851;29;20560;-73
2024/02/16 14:28:06;;;;;;;0.33;0.33;;;18.40;96.60;;;;;;4945160;29;20563;-73
2024/02/16 14:30:33;;;;;;;0.47;0.33;;;18.40;97.00;;;;;;4956306;29;20387;-72
2024/02/16 14:32:59;;;;;;;0.30;0.30;;;18.40;97.20;;;;;;4956430;29;20432;-69
2024/02/16 14:35:25;;;;;;;0.30;0.30;;;18.30;96.80;;;;;;4955062;28;20447;-69
2024/02/16 14:37:50;;;;;;;0.30;0.30;;;18.30;96.90;;;;;;4956868;29;20875;-69
2024/02/16 14:40:16;;;;;;;0.30;0.30;;;18.30;97.10;;;;;;4957000;29;20221;-69
2024/02/16 14:42:42;;;;;;;0.40;0.40;;;18.20;97.40;;;;;;4955941;29;20208;-68
2024/02/16 14:45:09;;;;;;;0.30;0.30;;;18.20;97.80;;;;;;4938580;28;20191;-69
2024/02/16 14:47:38;;;;;;;0.30;0.20;;;18.20;98.10;;;;;;4956057;29;20412;-69
2024/02/16 14:50:07;;;;;;;0.30;0.30;;;18.10;98.10;;;;;;4955861;29;20394;-68
2024/02/16 14:52:33;;;;;;;0.30;0.30;;;18.10;98.50;;;;;;4955294;29;20514;-69
2024/02/16 14:55:02;;;;;;;0.30;0.30;;;18.10;98.70;;;;;;4952626;29;20421;-68
2024/02/16 14:57:28;;;;;;;0.30;0.30;;;18.10;98.80;;;;;;4953808;29;20428;-68
2024/02/16 14:59:56;;;;;;;0.30;0.30;;;18.10;98.70;;;;;;4942968;29;20930;-69
2024/02/16 15:02:24;;;;;;;0.40;0.40;;;18.10;98.90;;;;;;4943941;29;20287;-69
2024/02/16 15:04:49;;;;;;;1.13;0.70;;;18.20;99.00;;;;;;4944693;29;20485;-70
2024/02/16 15:07:16;;;;;;;0.30;0.20;;;18.10;99.60;;;;;;4935824;29;20824;-70
2024/02/16 15:09:42;;;;;;;0.30;0.30;;;18.00;99.60;;;;;;4936258;29;20185;-69
2024/02/16 15:12:09;;;;;;;0.30;0.30;;;18.00;99.90;;;;;;4936803;29;20457;-69
2024/02/16 15:14:34;;;;;;;1.40;0.50;;;17.90;99.70;;;;;;4935585;29;20213;-68
2024/02/16 15:17:00;;;;;;;0.73;0.33;;;17.90;99.90;;;;;;4935991;29;20974;-68
2024/02/16 15:19:26;;;;;;;0.30;0.30;;;17.80;99.90;;;;;;4918925;29;20217;-70
2024/02/16 15:21:52;;;;;;;0.30;0.30;;;17.70;99.90;;;;;;4935970;29;20531;-68
2024/02/16 15:24:17;;;;;;;0.30;0.30;;;17.60;99.90;;;;;;4935694;29;20189;-69
2024/02/16 15:26:43;;;;;;;0.37;0.37;;;17.50;99.90;;;;;;4936135;29;20193;-69
2024/02/16 15:29:08;;;;;;;0.30;0.30;;;17.50;99.90;;;;;;4936451;29;20258;-69
2024/02/16 15:31:34;;;;;;;0.30;0.20;;;17.40;99.90;;;;;;4936149;29;20676;-68
2024/02/16 15:34:00;;;;;;;0.40;0.40;;;17.30;99.90;;;;;;4936086;29;20658;-70
2024/02/16 15:36:25;;;;;;;0.40;0.30;;;17.20;99.90;;;;;;4918508;29;20209;-68
2024/02/16 15:38:51;;;;;;;0.30;0.30;;;17.20;99.90;;;;;;4935761;29;20185;-69
2024/02/16 15:41:17;;;;;;;0.30;0.30;;;17.10;99.90;;;;;;4935827;29;20228;-69
2024/02/16 15:43:43;;;;;;;0.37;0.37;;;17.10;99.90;;;;;;4936709;29;20185;-69
2024/02/16 15:46:08;;;;;;;0.40;0.40;;;17.00;99.90;;;;;;4954531;28;20276;-69
2024/02/16 15:48:34;;;;;;;0.30;0.30;;;17.00;99.90;;;;;;4937379;29;20413;-71
2024/02/16 15:50:59;;;;;;;0.30;0.30;;;16.90;99.90;;;;;;4936798;29;20193;-69
2024/02/16 15:53:26;;;;;;;0.30;0.20;;;16.90;99.90;;;;;;4935697;29;20186;-65
2024/02/16 15:55:51;;;;;;;0.30;0.20;;;16.90;99.90;;;;;;4935563;29;20208;-65
2024/02/16 15:58:17;;;;;;;0.30;0.30;;;16.90;99.90;;;;;;4935774;29;20424;-71
2024/02/16 16:00:43;;;;;;;0.30;0.30;;;16.80;99.90;;;;;;4932577;29;20428;-71
2024/02/16 16:03:09;;;;;;;0.30;0.30;;;16.70;99.90;;;;;;4954823;29;20208;-71
2024/02/16 16:05:35;;;;;;;0.30;0.30;;;16.70;99.90;;;;;;4954362;29;20291;-67
2024/02/16 16:08:01;;;;;;;0.30;0.30;;;16.60;99.90;;;;;;4954742;29;20454;-68
2024/02/16 16:10:27;;;;;;;0.30;0.30;;;16.60;99.90;;;;;;4937615;29;20424;-66
2024/02/16 16:12:53;;;;;;;0.30;0.30;;;16.50;99.90;;;;;;4954880;29;20412;-65
2024/02/16 16:15:18;;;;;;;0.30;0.20;;;16.50;99.90;;;;;;4937395;29;20739;-67
2024/02/16 16:17:44;;;;;;;0.30;0.30;;;16.50;99.90;;;;;;4935918;29;20175;-71
2024/02/16 16:20:10;;;;;;;0.30;0.30;;;16.40;99.90;;;;;;4935665;29;20181;-71
2024/02/16 16:22:36;;;;;;;0.30;0.30;;;16.30;99.90;;;;;;4942031;29;20213;-69
2024/02/16 16:25:03;;;;;;;0.30;0.30;;;16.30;99.90;;;;;;4948754;29;20422;-71
2024/02/16 16:27:30;;;;;;;0.40;0.40;;;16.20;99.90;;;;;;4939148;29;20170;-73
2024/02/16 16:29:55;;;;;;;1.43;0.53;;;16.20;99.90;;;;;;4954776;29;20453;-72
2024/02/16 16:32:21;;;;;;;0.30;0.27;;;16.20;99.90;;;;;;4957142;29;20432;-73
2024/02/16 16:34:48;;;;;;;0.30;0.30;;;16.10;99.90;;;;;;4958288;28;20195;-72
2024/02/16 16:37:13;;;;;;;0.30;0.30;;;16.10;99.90;;;;;;4958044;28;20562;-71
2024/02/16 16:39:39;;;;;;;0.30;0.30;;;16.00;99.90;;;;;;4977384;28;20416;-70
2024/02/16 16:42:05;;;;;;;0.30;0.30;;;15.90;99.90;;;;;;4977321;28;20210;-72
2024/02/16 16:44:30;;;;;;;0.30;0.30;;;15.80;99.90;;;;;;4977317;28;20166;-70
2024/02/16 16:46:56;;;;;;;0.30;0.30;;;15.80;99.90;;;;;;4940233;28;20208;-69
2024/02/16 16:49:22;;;;;;;0.30;0.30;;;15.70;99.90;;;;;;4938805;29;20195;-69
2024/02/16 16:51:47;;;;;;;0.30;0.30;;;15.70;99.90;;;;;;4938954;29;20203;-72
2024/02/16 16:54:13;;;;;;;0.30;0.30;;;15.60;99.90;;;;;;4938669;29;20511;-71
2024/02/16 16:56:39;;;;;;;0.30;0.30;;;15.50;99.90;;;;;;4955383;28;20211;-70
2024/02/16 16:59:05;;;;;;;0.30;0.30;;;15.50;99.90;;;;;;4934646;29;20724;-70
2024/02/16 17:01:30;;;;;;;0.30;0.30;;;15.40;99.90;;;;;;4926242;29;20305;-70
2024/02/16 17:03:56;;;;;;;0.30;0.30;;;15.40;99.90;;;;;;4905327;29;20490;-75
2024/02/16 17:06:23;;;;;;;0.30;0.30;;;15.30;99.90;;;;;;4935789;29;20689;-72
2024/02/16 17:08:48;;;;;;;0.30;0.30;;;15.30;99.90;;;;;;4936570;29;20632;-69
2024/02/16 17:11:14;;;;;;;0.30;0.30;;;15.20;99.90;;;;;;4936644;29;20479;-70
2024/02/16 17:13:40;;;;;;;0.30;0.30;;;15.20;99.90;;;;;;4931277;29;20198;-68
2024/02/16 17:16:06;;;;;;;0.40;0.40;;;15.10;99.90;;;;;;4918144;29;20199;-69
2024/02/16 17:18:35;;;;;;;0.30;0.30;;;15.10;99.90;;;;;;4935615;29;20226;-69
2024/02/16 17:21:03;;;;;;;0.43;0.43;;;15.00;99.90;;;;;;4917299;29;20968;-70
2024/02/16 17:23:29;;;;;;;0.30;0.30;;;15.00;99.90;;;;;;4911936;29;20809;-67
2024/02/16 17:25:59;;;;;;;0.30;0.30;;;14.90;99.90;;;;;;4922261;29;20534;-68
2024/02/16 17:28:25;;;;;;;0.30;0.30;;;14.90;99.90;;;;;;4917230;29;20208;-70
2024/02/16 17:30:51;;;;;;;0.30;0.30;;;14.90;99.90;;;;;;4941153;28;20480;-71
2024/02/16 17:33:16;;;;;;;0.30;0.30;;;14.80;99.90;;;;;;4956182;28;20829;-71
2024/02/16 17:35:42;;;;;;;0.30;0.20;;;14.80;99.90;;;;;;4939705;29;20303;-69
2024/02/16 17:38:08;;;;;;;0.60;0.57;;;14.80;99.90;;;;;;4939530;29;20803;-69
2024/02/16 17:40:34;;;;;;;0.30;0.30;;;14.80;99.90;;;;;;4957147;29;20212;-70
2024/02/16 17:43:01;;;;;;;0.30;0.30;;;14.70;99.90;;;;;;4961856;28;20492;-68
2024/02/16 17:45:27;;;;;;;0.30;0.30;;;14.70;99.90;;;;;;4964845;28;20450;-69
2024/02/16 17:47:52;;;;;;;0.40;0.40;;;14.70;99.90;;;;;;4960667;28;20475;-70
2024/02/16 17:50:18;;;;;;;0.30;0.30;;;14.70;99.90;;;;;;4956299;29;20193;-68